createdAt,value
2018-06-03T00:00:41.109Z,54.27
2018-06-03T00:03:08.114Z,56.20
2018-06-03T00:05:35.129Z,54.37
2018-06-03T00:08:02.117Z,55.10
2018-06-03T00:10:29.138Z,54.13
2018-06-03T00:12:56.156Z,54.03
2018-06-03T00:15:23.156Z,50.23
2018-06-03T00:17:50.177Z,55.93
2018-06-03T00:20:27.507Z,61.83
2018-06-03T00:22:54.560Z,73.00
2018-06-03T00:25:21.581Z,58.50
2018-06-03T00:27:48.678Z,56.60
2018-06-03T00:30:15.709Z,52.93
2018-06-03T00:32:42.709Z,56.07
2018-06-03T00:35:09.746Z,53.60
2018-06-03T00:37:36.768Z,61.00
2018-06-03T00:40:03.809Z,53.67
2018-06-03T00:42:30.812Z,51.70
2018-06-03T00:44:57.830Z,57.33
2018-06-03T00:47:24.829Z,55.57
2018-06-03T00:49:51.881Z,57.93
2018-06-03T00:52:18.954Z,57.03
2018-06-03T00:54:46.046Z,55.07
2018-06-03T00:57:13.053Z,57.00
2018-06-03T00:59:40.062Z,54.10
2018-06-03T01:02:07.527Z,56.57
2018-06-03T01:04:34.521Z,55.50
2018-06-03T01:07:01.513Z,56.40
2018-06-03T01:09:28.758Z,55.43
2018-06-03T01:11:55.773Z,56.00
2018-06-03T01:14:23.108Z,53.13
2018-06-03T01:16:50.131Z,58.10
2018-06-03T01:19:17.322Z,56.00
2018-06-03T01:21:44.529Z,56.00
2018-06-03T01:24:11.737Z,54.67
2018-06-03T01:26:38.801Z,54.37
2018-06-03T01:29:06.581Z,56.77
2018-06-03T01:31:33.584Z,54.00
2018-06-03T01:34:00.647Z,50.70
2018-06-03T01:36:27.644Z,49.70
2018-06-03T01:38:54.645Z,53.33
2018-06-03T01:41:21.661Z,52.67
2018-06-03T01:43:48.668Z,51.63
2018-06-03T01:46:15.669Z,52.37
2018-06-03T01:48:42.700Z,47.80
2018-06-03T01:51:09.718Z,44.93
2018-06-03T01:53:36.721Z,48.47
2018-06-03T01:56:03.730Z,50.70
2018-06-03T01:58:30.736Z,49.40
2018-06-03T02:00:57.725Z,50.07
2018-06-03T02:03:24.897Z,52.20
2018-06-03T02:05:51.978Z,53.47
2018-06-03T02:08:18.991Z,51.40
2018-06-03T02:10:46.125Z,55.10
2018-06-03T02:13:13.119Z,51.90
2018-06-03T02:15:40.125Z,58.43
2018-06-03T02:18:07.145Z,51.17
2018-06-03T02:20:34.151Z,49.77
2018-06-03T02:23:01.237Z,51.27
2018-06-03T02:25:28.241Z,53.17
2018-06-03T02:27:55.285Z,52.27
2018-06-03T02:30:22.299Z,50.20
2018-06-03T02:32:49.311Z,53.90
2018-06-03T02:35:16.334Z,56.03
2018-06-03T02:37:43.420Z,55.30
2018-06-03T02:40:10.445Z,56.03
2018-06-03T02:42:37.481Z,55.93
2018-06-03T02:45:04.793Z,55.23
2018-06-03T02:47:31.801Z,54.17
2018-06-03T02:49:58.846Z,53.03
2018-06-03T02:52:25.941Z,54.40
2018-06-03T02:54:53.055Z,52.60
2018-06-03T02:57:20.097Z,55.57
2018-06-03T02:59:47.747Z,53.70
2018-06-03T03:02:14.833Z,55.80
2018-06-03T03:04:41.832Z,49.87
2018-06-03T03:07:08.947Z,49.70
2018-06-03T03:09:35.941Z,50.97
2018-06-03T03:12:02.971Z,48.50
2018-06-03T03:14:29.978Z,53.37
2018-06-03T03:16:57.046Z,51.03
2018-06-03T03:19:24.038Z,55.10
2018-06-03T03:21:51.238Z,54.80
2018-06-03T03:24:18.245Z,53.37
2018-06-03T03:26:45.249Z,51.73
2018-06-03T03:29:12.380Z,50.43
2018-06-03T03:31:39.477Z,51.10
2018-06-03T03:34:06.485Z,51.87
2018-06-03T03:36:33.493Z,50.30
2018-06-03T03:39:00.592Z,50.90
2018-06-03T03:41:27.701Z,50.80
2018-06-03T03:43:54.741Z,55.53
2018-06-03T03:46:21.743Z,54.77
2018-06-03T03:48:48.761Z,53.10
2018-06-03T03:51:15.854Z,51.63
2018-06-03T03:53:42.856Z,49.63
2018-06-03T03:56:09.874Z,53.50
2018-06-03T03:58:37.075Z,51.33
2018-06-03T04:01:04.253Z,50.70
2018-06-03T04:03:31.314Z,50.30
2018-06-03T04:05:58.413Z,48.77
2018-06-03T04:08:25.521Z,49.90
2018-06-03T04:10:52.565Z,49.17
2018-06-03T04:13:20.007Z,54.93
2018-06-03T04:15:46.970Z,49.80
2018-06-03T04:18:13.970Z,49.87
2018-06-03T04:20:41.061Z,52.07
2018-06-03T04:23:08.062Z,49.10
2018-06-03T04:25:35.107Z,48.97
2018-06-03T04:28:02.121Z,47.97
2018-06-03T04:30:29.129Z,49.03
2018-06-03T04:32:56.146Z,48.30
2018-06-03T04:35:23.150Z,49.13
2018-06-03T04:37:50.257Z,50.93
2018-06-03T04:40:17.265Z,47.83
2018-06-03T04:42:44.357Z,46.27
2018-06-03T04:45:11.476Z,48.33
2018-06-03T04:47:38.473Z,47.10
2018-06-03T04:50:05.492Z,48.90
2018-06-03T04:52:32.513Z,44.10
2018-06-03T04:54:59.538Z,41.63
2018-06-03T04:57:26.626Z,42.97
2018-06-03T04:59:53.670Z,44.33
2018-06-03T05:02:20.673Z,45.30
2018-06-03T05:04:47.684Z,43.50
2018-06-03T05:07:14.793Z,40.50
2018-06-03T05:09:41.785Z,45.07
2018-06-03T05:12:08.786Z,39.80
2018-06-03T05:14:35.968Z,44.07
2018-06-03T05:17:02.983Z,42.10
2018-06-03T05:19:29.996Z,42.10
2018-06-03T05:21:57.121Z,42.23
2018-06-03T05:24:24.213Z,44.30
2018-06-03T05:26:51.304Z,40.67
2018-06-03T05:29:18.341Z,41.40
2018-06-03T05:31:45.365Z,41.50
2018-06-03T05:34:12.393Z,39.23
2018-06-03T05:36:39.873Z,40.33
2018-06-03T05:39:07.269Z,36.40
2018-06-03T05:41:34.367Z,35.10
2018-06-03T05:44:01.408Z,36.17
2018-06-03T05:46:28.441Z,38.60
2018-06-03T05:48:55.449Z,38.50
2018-06-03T05:51:22.472Z,39.20
2018-06-03T05:53:49.480Z,38.87
2018-06-03T05:56:16.829Z,39.03
2018-06-03T05:58:43.959Z,37.67
2018-06-03T06:01:11.017Z,36.87
2018-06-03T06:03:38.112Z,37.20
2018-06-03T06:06:05.126Z,38.80
2018-06-03T06:08:32.136Z,35.77
2018-06-03T06:10:59.159Z,40.93
2018-06-03T06:13:26.164Z,29.57
2018-06-03T06:15:53.204Z,37.30
2018-06-03T06:18:20.284Z,36.53
2018-06-03T06:20:47.289Z,35.93
2018-06-03T06:23:14.397Z,34.63
2018-06-03T06:25:41.508Z,35.03
2018-06-03T06:28:08.521Z,35.00
2018-06-03T06:30:35.641Z,42.90
2018-06-03T06:33:02.978Z,37.10
2018-06-03T06:35:30.067Z,36.93
2018-06-03T06:37:57.375Z,36.57
2018-06-03T06:40:24.373Z,37.40
2018-06-03T06:42:51.385Z,36.20
2018-06-03T06:45:18.498Z,36.43
2018-06-03T06:47:45.986Z,35.27
2018-06-03T06:50:13.091Z,35.10
2018-06-03T06:52:40.352Z,36.30
2018-06-03T06:55:07.474Z,35.63
2018-06-03T06:57:34.740Z,32.83
2018-06-03T07:00:01.875Z,32.47
2018-06-03T07:02:28.887Z,31.87
2018-06-03T07:04:55.898Z,31.23
2018-06-03T07:07:23.290Z,26.73
2018-06-03T07:09:51.608Z,28.47
2018-06-03T07:12:19.980Z,25.47
2018-06-03T07:14:51.011Z,26.97
2018-06-03T07:17:18.011Z,27.13
2018-06-03T07:19:45.025Z,24.60
2018-06-03T07:22:12.481Z,27.20
2018-06-03T07:24:39.869Z,25.30
2018-06-03T07:27:07.036Z,28.67
2018-06-03T07:29:34.061Z,25.63
2018-06-03T07:32:01.182Z,26.80
2018-06-03T07:34:28.398Z,26.73
2018-06-03T07:36:55.510Z,26.00
2018-06-03T07:39:22.512Z,26.93
2018-06-03T07:41:49.533Z,27.33
2018-06-03T07:44:16.546Z,28.83
2018-06-03T07:46:43.679Z,23.50
2018-06-03T07:49:10.784Z,27.57
2018-06-03T07:51:37.885Z,28.30
2018-06-03T07:54:05.043Z,27.87
2018-06-03T07:56:32.202Z,25.57
2018-06-03T07:58:59.385Z,27.10
2018-06-03T08:01:26.472Z,28.17
2018-06-03T08:03:53.507Z,25.00
2018-06-03T08:06:20.593Z,24.47
2018-06-03T08:08:47.593Z,26.60
2018-06-03T08:11:14.635Z,24.70
2018-06-03T08:13:41.660Z,24.80
2018-06-03T08:16:08.651Z,22.70
2018-06-03T08:18:35.766Z,24.80
2018-06-03T08:21:02.863Z,25.40
2018-06-03T08:23:30.058Z,27.17
2018-06-03T08:25:57.053Z,25.13
2018-06-03T08:28:24.143Z,22.53
2018-06-03T08:30:51.382Z,23.87
2018-06-03T08:33:18.457Z,25.43
2018-06-03T08:35:45.473Z,24.37
2018-06-03T08:38:12.585Z,25.00
2018-06-03T08:40:39.603Z,21.67
2018-06-03T08:43:06.706Z,22.67
2018-06-03T08:45:33.727Z,21.03
2018-06-03T08:48:00.753Z,21.73
2018-06-03T08:50:27.778Z,20.73
2018-06-03T08:52:54.846Z,17.87
2018-06-03T08:55:21.983Z,23.30
2018-06-03T08:57:48.997Z,23.27
2018-06-03T09:00:16.014Z,21.03
2018-06-03T09:02:43.032Z,22.97
2018-06-03T09:05:10.241Z,20.93
2018-06-03T09:07:37.245Z,20.10
2018-06-03T09:10:04.265Z,20.20
2018-06-03T09:12:31.389Z,18.90
2018-06-03T09:14:58.510Z,19.53
2018-06-03T09:17:25.590Z,20.00
2018-06-03T09:19:52.669Z,18.27
2018-06-03T09:22:19.676Z,21.13
2018-06-03T09:24:46.693Z,22.27
2018-06-03T09:27:13.877Z,22.80
2018-06-03T09:29:40.877Z,23.10
2018-06-03T09:32:08.049Z,21.50
2018-06-03T09:34:35.073Z,20.03
2018-06-03T09:37:02.142Z,21.10
2018-06-03T09:39:29.318Z,18.77
2018-06-03T09:41:56.446Z,17.50
2018-06-03T09:44:23.457Z,19.90
2018-06-03T09:46:50.475Z,18.00
2018-06-03T09:49:17.473Z,17.73
2018-06-03T09:51:44.501Z,19.80
2018-06-03T09:54:14.277Z,18.27
2018-06-03T09:56:41.396Z,16.53
2018-06-03T09:59:08.458Z,17.77
2018-06-03T10:01:35.473Z,17.00
2018-06-03T10:04:02.576Z,15.50
2018-06-03T10:06:29.602Z,14.07
2018-06-03T10:08:56.618Z,15.17
2018-06-03T10:11:23.634Z,13.47
2018-06-03T10:13:50.707Z,14.00
2018-06-03T10:16:17.811Z,14.90
2018-06-03T10:18:45.260Z,15.23
2018-06-03T10:21:12.280Z,14.20
2018-06-03T10:23:39.661Z,13.50
2018-06-03T10:26:06.665Z,14.60
2018-06-03T10:28:33.666Z,16.73
2018-06-03T10:31:00.698Z,16.80
2018-06-03T10:33:27.725Z,15.80
2018-06-03T10:35:54.813Z,13.87
2018-06-03T10:38:21.929Z,13.90
2018-06-03T10:40:48.934Z,13.00
2018-06-03T10:43:16.010Z,13.43
2018-06-03T10:45:43.146Z,14.17
2018-06-03T10:48:10.161Z,13.17
2018-06-03T10:50:37.162Z,12.00
2018-06-03T10:53:04.224Z,12.97
2018-06-03T10:55:31.222Z,13.50
2018-06-03T10:57:58.330Z,10.83
2018-06-03T11:00:25.337Z,13.17
2018-06-03T11:02:52.455Z,11.50
2018-06-03T11:05:19.679Z,11.73
2018-06-03T11:07:46.678Z,12.03
2018-06-03T11:10:13.770Z,14.63
2018-06-03T11:12:40.788Z,15.00
2018-06-03T11:15:07.805Z,15.67
2018-06-03T11:17:34.810Z,20.00
2018-06-03T11:20:01.851Z,17.90
2018-06-03T11:22:28.889Z,17.90
2018-06-03T11:24:56.008Z,21.80
2018-06-03T11:27:23.281Z,19.97
2018-06-03T11:29:50.285Z,21.40
2018-06-03T11:32:17.394Z,19.20
2018-06-03T11:34:44.502Z,20.37
2018-06-03T11:37:11.493Z,19.83
2018-06-03T11:39:38.500Z,19.07
2018-06-03T11:42:05.584Z,18.40
2018-06-03T11:44:32.576Z,21.20
2018-06-03T11:46:59.676Z,19.10
2018-06-03T11:49:26.837Z,17.20
2018-06-03T11:51:53.829Z,19.97
2018-06-03T11:54:20.837Z,19.70
2018-06-03T11:56:59.639Z,17.93
2018-06-03T11:59:38.649Z,18.20
2018-06-03T12:02:05.720Z,18.57
2018-06-03T12:04:32.717Z,19.13
2018-06-03T12:06:59.721Z,18.90
2018-06-03T12:09:26.825Z,18.67
2018-06-03T12:11:53.837Z,19.50
2018-06-03T12:14:20.843Z,17.77
2018-06-03T12:16:47.935Z,16.47
2018-06-03T12:19:15.119Z,17.47
2018-06-03T12:21:42.119Z,17.90
2018-06-03T12:24:09.130Z,22.00
2018-06-03T12:26:36.137Z,16.80
2018-06-03T12:29:03.315Z,16.50
2018-06-03T12:31:30.429Z,19.90
2018-06-03T12:33:57.431Z,39.37
2018-06-03T12:36:24.475Z,16.73
2018-06-03T12:38:51.537Z,18.13
2018-06-03T12:41:18.553Z,19.70
2018-06-03T12:43:45.766Z,16.33
2018-06-03T12:46:12.777Z,20.93
2018-06-03T12:48:39.781Z,15.00
2018-06-03T12:51:06.828Z,19.00
2018-06-03T12:53:33.900Z,17.87
2018-06-03T12:56:00.904Z,20.00
2018-06-03T12:58:28.010Z,17.63
2018-06-03T13:00:55.065Z,19.03
2018-06-03T13:03:22.098Z,17.50
2018-06-03T13:05:49.590Z,45.63
2018-06-03T13:08:16.679Z,37.20
2018-06-03T13:10:43.697Z,18.70
2018-06-03T13:13:10.812Z,28.50
2018-06-03T13:15:37.809Z,22.00
2018-06-03T13:18:04.863Z,19.07
2018-06-03T13:20:31.854Z,16.80
2018-06-03T13:22:58.853Z,16.23
2018-06-03T13:25:25.946Z,19.17
2018-06-03T13:27:53.754Z,18.50
2018-06-03T13:30:20.771Z,15.90
2018-06-03T13:32:47.905Z,15.37
2018-06-03T13:35:15.014Z,16.27
2018-06-03T13:37:42.145Z,15.47
2018-06-03T13:40:09.150Z,20.97
2018-06-03T13:42:36.317Z,14.40
2018-06-03T13:45:03.453Z,15.67
2018-06-03T13:47:30.461Z,22.47
2018-06-03T13:49:57.478Z,15.47
2018-06-03T13:52:24.560Z,23.43
2018-06-03T13:54:51.713Z,15.00
2018-06-03T13:57:18.811Z,12.63
2018-06-03T13:59:45.860Z,14.13
2018-06-03T14:02:12.960Z,13.10
2018-06-03T14:04:40.014Z,10.80
2018-06-03T14:07:07.049Z,11.80
2018-06-03T14:09:34.066Z,13.07
2018-06-03T14:12:01.092Z,12.07
2018-06-03T14:14:28.235Z,13.40
2018-06-03T14:16:55.337Z,13.30
2018-06-03T14:19:22.372Z,13.63
2018-06-03T14:21:49.450Z,12.03
2018-06-03T14:24:16.624Z,14.10
2018-06-03T14:26:43.812Z,31.87
2018-06-03T14:29:11.119Z,14.30
2018-06-03T14:31:38.135Z,14.90
2018-06-03T14:34:05.261Z,22.23
2018-06-03T14:36:32.270Z,17.40
2018-06-03T14:38:59.261Z,20.97
2018-06-03T14:41:26.322Z,15.97
2018-06-03T14:43:53.422Z,14.43
2018-06-03T14:46:20.626Z,15.03
2018-06-03T14:48:47.635Z,15.10
2018-06-03T14:51:14.713Z,36.07
2018-06-03T14:53:41.849Z,14.90
2018-06-03T14:56:08.938Z,21.30
2018-06-03T14:58:35.941Z,22.33
2018-06-03T15:01:02.991Z,16.63
2018-06-03T15:03:29.990Z,17.90
2018-06-03T15:05:57.081Z,17.50
2018-06-03T15:08:24.178Z,17.50
2018-06-03T15:10:51.277Z,18.40
2018-06-03T15:13:18.377Z,18.63
2018-06-03T15:15:45.431Z,17.23
2018-06-03T15:18:12.430Z,17.63
2018-06-03T15:20:39.533Z,18.40
2018-06-03T15:23:06.557Z,17.10
2018-06-03T15:25:33.661Z,16.90
2018-06-03T15:28:00.682Z,16.80
2018-06-03T15:30:27.676Z,18.33
2018-06-03T15:32:54.864Z,15.70
2018-06-03T15:35:21.872Z,14.93
2018-06-03T15:37:48.977Z,16.20
2018-06-03T15:40:16.069Z,16.87
2018-06-03T15:42:43.077Z,17.23
2018-06-03T15:45:10.111Z,13.83
2018-06-03T15:47:37.110Z,18.10
2018-06-03T15:50:04.146Z,18.70
2018-06-03T15:52:31.546Z,16.10
2018-06-03T15:54:58.645Z,15.10
2018-06-03T15:57:25.759Z,15.10
2018-06-03T15:59:52.867Z,19.30
2018-06-03T16:02:19.903Z,17.47
2018-06-03T16:04:46.901Z,16.57
2018-06-03T16:07:13.966Z,17.27
2018-06-03T16:09:40.933Z,15.63
2018-06-03T16:12:07.947Z,15.80
2018-06-03T16:14:35.008Z,15.33
2018-06-03T16:17:02.075Z,17.37
2018-06-03T16:19:29.153Z,19.80
2018-06-03T16:21:56.156Z,16.70
2018-06-03T16:24:23.413Z,15.13
2018-06-03T16:26:50.411Z,16.50
2018-06-03T16:29:17.563Z,16.27
2018-06-03T16:31:44.598Z,15.23
2018-06-03T16:34:11.683Z,15.43
2018-06-03T16:36:38.698Z,14.43
2018-06-03T16:39:06.529Z,19.73
2018-06-03T16:41:33.645Z,12.10
2018-06-03T16:44:00.685Z,11.07
2018-06-03T16:46:27.705Z,10.83
2018-06-03T16:48:54.825Z,10.90
2018-06-03T16:51:21.942Z,10.37
2018-06-03T16:53:48.936Z,10.53
2018-06-03T16:56:16.261Z,11.13
2018-06-03T16:58:43.656Z,9.50
2018-06-03T17:01:10.783Z,8.83
2018-06-03T17:03:37.894Z,7.83
2018-06-03T17:06:04.909Z,8.40
2018-06-03T17:08:31.909Z,9.70
2018-06-03T17:10:59.300Z,11.10
2018-06-03T17:13:26.327Z,7.60
2018-06-03T17:15:53.338Z,7.33
2018-06-03T17:18:20.462Z,7.70
2018-06-03T17:20:47.594Z,8.03
2018-06-03T17:23:14.604Z,7.93
2018-06-03T17:25:41.806Z,27.47
2018-06-03T17:28:09.004Z,57.20
2018-06-03T17:30:36.044Z,63.73
2018-06-03T17:33:03.077Z,6.53
2018-06-03T17:35:30.134Z,6.63
2018-06-03T17:37:57.214Z,7.07
2018-06-03T17:40:24.348Z,7.50
2018-06-03T17:42:51.418Z,7.20
2018-06-03T17:45:18.445Z,9.17
2018-06-03T17:47:45.558Z,10.27
2018-06-03T17:50:12.645Z,7.10
2018-06-03T17:52:39.667Z,9.20
2018-06-03T17:55:06.749Z,7.33
2018-06-03T17:57:33.749Z,5.60
2018-06-03T18:00:00.797Z,6.20
2018-06-03T18:02:27.812Z,6.70
2018-06-03T18:04:54.897Z,7.03
2018-06-03T18:07:21.998Z,8.27
2018-06-03T18:09:49.005Z,6.87
2018-06-03T18:12:16.018Z,5.83
2018-06-03T18:14:43.046Z,6.30
2018-06-03T18:17:10.061Z,7.83
2018-06-03T18:19:37.166Z,6.50
2018-06-03T18:22:04.195Z,5.70
2018-06-03T18:24:31.482Z,6.80
2018-06-03T18:26:58.487Z,15.40
2018-06-03T18:29:25.617Z,5.37
2018-06-03T18:31:52.606Z,10.50
2018-06-03T18:34:19.634Z,6.30
2018-06-03T18:36:46.732Z,6.70
2018-06-03T18:39:13.980Z,6.80
2018-06-03T18:41:41.174Z,5.67
2018-06-03T18:44:08.265Z,6.10
2018-06-03T18:46:35.301Z,7.30
2018-06-03T18:49:02.323Z,6.70
2018-06-03T18:51:29.444Z,7.10
2018-06-03T18:53:56.450Z,6.87
2018-06-03T18:56:23.543Z,7.73
2018-06-03T18:58:50.689Z,7.50
2018-06-03T19:01:17.824Z,7.30
2018-06-03T19:03:44.918Z,8.03
2018-06-03T19:06:12.007Z,6.70
2018-06-03T19:08:39.013Z,6.80
2018-06-03T19:11:06.163Z,7.10
2018-06-03T19:13:40.007Z,7.40
2018-06-03T19:16:06.993Z,7.13
2018-06-03T19:18:34.059Z,7.57
2018-06-03T19:21:01.042Z,9.03
2018-06-03T19:23:28.169Z,21.67
2018-06-03T19:25:55.168Z,7.80
2018-06-03T19:28:22.159Z,8.50
2018-06-03T19:30:49.265Z,9.37
2018-06-03T19:33:16.484Z,8.40
2018-06-03T19:35:43.498Z,18.93
2018-06-03T19:38:10.585Z,7.70
2018-06-03T19:40:37.773Z,8.40
2018-06-03T19:43:04.749Z,9.20
2018-06-03T19:45:31.763Z,8.20
2018-06-03T19:47:58.801Z,8.00
2018-06-03T19:50:26.040Z,8.50
2018-06-03T19:52:53.157Z,8.57
2018-06-03T19:55:20.160Z,9.20
2018-06-03T19:57:47.356Z,7.27
2018-06-03T20:00:14.349Z,8.10
2018-06-03T20:02:41.382Z,7.77
2018-06-03T20:05:08.488Z,8.40
2018-06-03T20:07:35.496Z,8.80
2018-06-03T20:10:02.521Z,8.67
2018-06-03T20:12:29.721Z,29.90
2018-06-03T20:14:56.757Z,14.47
2018-06-03T20:17:23.779Z,16.17
2018-06-03T20:19:50.912Z,9.97
2018-06-03T20:22:18.011Z,12.83
2018-06-03T20:24:45.005Z,9.60
2018-06-03T20:27:12.041Z,23.67
2018-06-03T20:29:39.061Z,9.77
2018-06-03T20:32:06.171Z,9.80
2018-06-03T20:34:33.303Z,13.47
2018-06-03T20:37:00.308Z,10.80
2018-06-03T20:39:27.389Z,10.00
2018-06-03T20:41:54.555Z,9.90
2018-06-03T20:44:21.553Z,9.37
2018-06-03T20:46:48.561Z,9.50
2018-06-03T20:49:15.581Z,12.13
2018-06-03T20:51:42.686Z,9.40
2018-06-03T20:54:09.790Z,9.93
2018-06-03T20:56:37.088Z,34.13
2018-06-03T20:59:11.040Z,9.80
2018-06-03T21:01:38.141Z,8.97
2018-06-03T21:04:05.192Z,9.00
2018-06-03T21:06:32.234Z,9.37
2018-06-03T21:08:59.428Z,9.43
2018-06-03T21:11:26.445Z,10.70
2018-06-03T21:13:53.466Z,17.60
2018-06-03T21:16:20.473Z,10.37
2018-06-03T21:18:47.500Z,10.77
2018-06-03T21:21:14.613Z,10.90
2018-06-03T21:23:41.843Z,11.07
2018-06-03T21:26:08.896Z,10.53
2018-06-03T21:28:36.710Z,13.03
2018-06-03T21:31:04.095Z,19.97
2018-06-03T21:33:31.373Z,12.77
2018-06-03T21:35:58.385Z,12.37
2018-06-03T21:38:25.409Z,12.00
2018-06-03T21:40:52.521Z,17.97
2018-06-03T21:43:19.673Z,12.27
2018-06-03T21:45:46.692Z,13.10
2018-06-03T21:48:13.707Z,13.93
2018-06-03T21:50:40.802Z,12.40
2018-06-03T21:53:07.848Z,15.30
2018-06-03T21:55:34.966Z,18.00
2018-06-03T21:58:02.057Z,14.40
2018-06-03T22:00:29.186Z,16.00
2018-06-03T22:02:56.308Z,17.20
2018-06-03T22:05:23.319Z,15.87
2018-06-03T22:07:50.325Z,15.90
2018-06-03T22:10:17.357Z,17.40
2018-06-03T22:12:44.370Z,16.07
2018-06-03T22:15:11.465Z,17.77
2018-06-03T22:17:38.487Z,18.70
2018-06-03T22:20:05.500Z,19.23
2018-06-03T22:22:32.592Z,17.23
2018-06-03T22:24:59.597Z,16.20
2018-06-03T22:27:26.617Z,21.43
2018-06-03T22:29:53.633Z,19.90
2018-06-03T22:32:20.726Z,20.43
2018-06-03T22:34:47.982Z,23.23
2018-06-03T22:37:14.979Z,19.70
2018-06-03T22:39:42.002Z,20.33
2018-06-03T22:42:09.016Z,20.47
2018-06-03T22:44:36.163Z,21.07
2018-06-03T22:47:03.140Z,21.67
2018-06-03T22:49:30.252Z,21.50
2018-06-03T22:51:57.281Z,23.60
2018-06-03T22:54:24.285Z,25.10
2018-06-03T22:57:00.727Z,23.30
2018-06-03T22:59:27.817Z,24.33
2018-06-03T23:01:54.993Z,25.70
2018-06-03T23:04:22.009Z,24.97
2018-06-03T23:06:49.101Z,34.13
2018-06-03T23:09:16.125Z,24.43
2018-06-03T23:11:43.158Z,24.30
2018-06-03T23:14:10.252Z,28.37
2018-06-03T23:16:37.329Z,28.40
2018-06-03T23:19:04.378Z,30.20
2018-06-03T23:21:31.406Z,37.77
2018-06-03T23:23:58.412Z,29.50
2018-06-03T23:26:25.509Z,30.30
2018-06-03T23:28:52.740Z,29.80
2018-06-03T23:31:19.736Z,28.60
2018-06-03T23:33:46.827Z,33.00
2018-06-03T23:36:13.844Z,30.13
2018-06-03T23:38:40.901Z,29.60
2018-06-03T23:41:07.992Z,27.90
2018-06-03T23:43:35.009Z,30.77
2018-06-03T23:46:02.010Z,29.63
2018-06-03T23:48:29.502Z,27.90
2018-06-03T23:50:56.517Z,29.90
2018-06-03T23:53:23.530Z,29.67
2018-06-03T23:55:50.617Z,31.40
2018-06-03T23:58:17.636Z,31.80
